Bob Deere — WDF9423 — position and weather

sailwx.info

Track history (hours):
 
Tides and Currents Weather Stations Pressure Air Temp Water Temp Dewpoint Dewpoint Depression Visibility Wind Speed Wind Dir Waves Ship Positions

Bob Deere

Owner: Genesis Marine, LLC, Houston, TX. More information available from US FCC via Universal Licensing System and Coast Guard Vessel Documentation Center.

Last reported at 2017-Oct-02 14:15 UTC. Time now 2017-Nov-18 06:23 UTC.
Position N 32°40' W 091°07'.
Warning: this ship's position is 46 days out of date.

Length 24 m; draft 3.3 m.

Type: Towing. MMSI: 367505010.

Date/timePositionNaut miles runAvg speedWind from/ knotsBaromVisibWave heightAir tempDewpointWater temp
2017-Oct-02 14:15N 32°40' W 091°07'1 4.4
2017-Oct-02 14:00N 32°40' W 091°08'2 4.4
2017-Oct-02 13:30N 32°38' W 091°09'3 5.1
2017-Oct-02 13:00N 32°35' W 091°08'1 2.2
2017-Oct-02 12:27N 32°34' W 091°07'0 0.0
2017-Oct-02 12:00N 32°34' W 091°07'0 0.0
2017-Oct-02 11:30N 32°34' W 091°07'0 0.0
2017-Oct-02 11:00N 32°34' W 091°07'1 2.2
2017-Oct-02 10:30N 32°34' W 091°06'2 4.9
2017-Oct-02 10:00N 32°31' W 091°06'3 5.3
2017-Oct-02 09:30N 32°29' W 091°07'3 5.3
2017-Oct-02 09:00N 32°27' W 091°05'3 5.3
2017-Oct-02 08:30N 32°26' W 091°02'2 4.7
2017-Oct-02 08:01N 32°25' W 090°60'2 3.4
2017-Oct-02 07:30N 32°23' W 090°60'2 3.8
2017-Oct-02 07:00N 32°21' W 090°59'3 5.4
2017-Oct-02 06:30N 32°21' W 090°56'2 4.3
2017-Oct-02 06:00N 32°20' W 090°54'3 5.1
2017-Oct-02 05:30N 32°18' W 090°56'3 5.1
2017-Oct-02 05:00N 32°16' W 090°58'2 3.8
2017-Oct-02 04:30N 32°14' W 090°59'2 5.0
2017-Oct-02 04:00N 32°12' W 090°59'2 4.9
2017-Oct-02 03:30N 32°10' W 091°00'2 4.6
2017-Oct-02 03:00N 32°07' W 091°01'3 5.0
2017-Oct-02 02:30N 32°08' W 091°04'2 4.6
2017-Oct-02 02:01N 32°07' W 091°07'4 5.5
2017-Oct-02 01:18N 32°04' W 091°04'1 5.0
2017-Oct-02 01:00N 32°03' W 091°04'3 6.2
2017-Oct-02 00:30N 32°00' W 091°05'5 5.1
2017-Oct-01 23:34N 31°59' W 091°11'1 5.7
2017-Oct-01 23:29N 31°58' W 091°11'  
Track history (hours):
 
Tides and Currents Weather Stations Pressure Air Temp Water Temp Dewpoint Dewpoint Depression Visibility Wind Speed Wind Dir Waves Ship Positions

Bob Deere

Owner: Genesis Marine, LLC, Houston, TX. More information available from US FCC via Universal Licensing System and Coast Guard Vessel Documentation Center.

Last reported at 2017-Oct-02 14:15 UTC. Time now 2017-Nov-18 06:23 UTC.
Position N 32°40' W 091°07'.
Warning: this ship's position is 46 days out of date.

Length 24 m; draft 3.3 m.

Type: Towing. MMSI: 367505010.

Date/timePositionNaut miles runAvg speedWind from/ knotsBaromVisibWave heightAir tempDewpointWater temp
2017-Oct-02 14:15N 32°40' W 091°07'1 4.4
2017-Oct-02 14:00N 32°40' W 091°08'2 4.4
2017-Oct-02 13:30N 32°38' W 091°09'3 5.1
2017-Oct-02 13:00N 32°35' W 091°08'1 2.2
2017-Oct-02 12:27N 32°34' W 091°07'0 0.0
2017-Oct-02 12:00N 32°34' W 091°07'0 0.0
2017-Oct-02 11:30N 32°34' W 091°07'0 0.0
2017-Oct-02 11:00N 32°34' W 091°07'1 2.2
2017-Oct-02 10:30N 32°34' W 091°06'2 4.9
2017-Oct-02 10:00N 32°31' W 091°06'3 5.3
2017-Oct-02 09:30N 32°29' W 091°07'3 5.3
2017-Oct-02 09:00N 32°27' W 091°05'3 5.3
2017-Oct-02 08:30N 32°26' W 091°02'2 4.7
2017-Oct-02 08:01N 32°25' W 090°60'2 3.4
2017-Oct-02 07:30N 32°23' W 090°60'2 3.8
2017-Oct-02 07:00N 32°21' W 090°59'3 5.4
2017-Oct-02 06:30N 32°21' W 090°56'2 4.3
2017-Oct-02 06:00N 32°20' W 090°54'3 5.1
2017-Oct-02 05:30N 32°18' W 090°56'3 5.1
2017-Oct-02 05:00N 32°16' W 090°58'2 3.8
2017-Oct-02 04:30N 32°14' W 090°59'2 5.0
2017-Oct-02 04:00N 32°12' W 090°59'2 4.9
2017-Oct-02 03:30N 32°10' W 091°00'2 4.6
2017-Oct-02 03:00N 32°07' W 091°01'3 5.0
2017-Oct-02 02:30N 32°08' W 091°04'2 4.6
2017-Oct-02 02:01N 32°07' W 091°07'4 5.5
2017-Oct-02 01:18N 32°04' W 091°04'1 5.0
2017-Oct-02 01:00N 32°03' W 091°04'3 6.2
2017-Oct-02 00:30N 32°00' W 091°05'5 5.1
2017-Oct-01 23:34N 31°59' W 091°11'1 5.7
2017-Oct-01 23:29N 31°58' W 091°11'  

Dump ship's entire track history